createdAt,value
2023-05-10T00:02:07.914Z,46.23
2023-05-10T00:04:34.298Z,46.18
2023-05-10T00:07:00.611Z,46.16
2023-05-10T00:09:26.989Z,45.99
2023-05-10T00:11:53.335Z,46.30
2023-05-10T00:14:19.638Z,45.93
2023-05-10T00:16:45.989Z,45.82
2023-05-10T00:19:12.358Z,45.94
2023-05-10T00:21:38.679Z,45.62
2023-05-10T00:24:04.988Z,45.80
2023-05-10T00:26:31.293Z,45.55
2023-05-10T00:28:57.596Z,45.31
2023-05-10T00:31:24.000Z,45.55
2023-05-10T00:33:50.419Z,45.50
2023-05-10T00:36:16.738Z,45.37
2023-05-10T00:38:43.093Z,45.17
2023-05-10T00:41:09.636Z,45.23
2023-05-10T00:43:35.953Z,45.41
2023-05-10T00:46:02.344Z,45.07
2023-05-10T00:48:28.734Z,45.17
2023-05-10T00:50:55.104Z,45.06
2023-05-10T00:53:21.429Z,45.15
2023-05-10T00:55:47.778Z,45.07
2023-05-10T00:58:14.132Z,45.11
2023-05-10T01:00:40.449Z,44.67
2023-05-10T01:03:06.870Z,44.67
2023-05-10T01:05:33.352Z,44.83
2023-05-10T01:07:59.667Z,44.61
2023-05-10T01:10:26.042Z,44.97
2023-05-10T01:12:52.383Z,44.75
2023-05-10T01:15:18.691Z,44.56
2023-05-10T01:17:45.054Z,44.66
2023-05-10T01:20:11.381Z,44.63
2023-05-10T01:22:37.744Z,44.47
2023-05-10T01:25:04.094Z,44.75
2023-05-10T01:27:30.441Z,44.71
2023-05-10T01:30:13.630Z,44.59
2023-05-10T01:32:40.943Z,44.34
2023-05-10T01:35:07.301Z,44.43
2023-05-10T01:37:33.664Z,44.23
2023-05-10T01:40:00.035Z,44.17
2023-05-10T01:42:26.401Z,44.20
2023-05-10T01:44:52.720Z,44.32
2023-05-10T01:47:19.026Z,44.07
2023-05-10T01:49:45.349Z,44.03
2023-05-10T01:52:11.661Z,43.96
2023-05-10T01:54:38.006Z,44.13
2023-05-10T01:57:04.296Z,44.09
2023-05-10T01:59:30.642Z,44.00
2023-05-10T02:01:56.951Z,43.98
2023-05-10T02:04:23.294Z,43.86
2023-05-10T02:06:49.646Z,43.70
2023-05-10T02:09:16.029Z,43.89
2023-05-10T02:11:42.330Z,43.79
2023-05-10T02:14:08.670Z,43.74
2023-05-10T02:16:35.036Z,43.79
2023-05-10T02:19:01.423Z,43.65
2023-05-10T02:21:27.852Z,43.44
2023-05-10T02:23:54.206Z,43.87
2023-05-10T02:26:20.542Z,43.66
2023-05-10T02:28:46.903Z,43.52
2023-05-10T02:31:13.264Z,43.78
2023-05-10T02:33:39.736Z,43.85
2023-05-10T02:36:06.040Z,43.37
2023-05-10T02:38:32.387Z,43.64
2023-05-10T02:40:58.705Z,43.49
2023-05-10T02:43:25.054Z,43.57
2023-05-10T02:45:51.414Z,43.14
2023-05-10T02:48:17.799Z,43.69
2023-05-10T02:50:44.121Z,43.19
2023-05-10T02:53:10.512Z,43.42
2023-05-10T02:55:36.888Z,43.39
2023-05-10T02:58:03.288Z,43.22
2023-05-10T03:00:29.612Z,43.27
2023-05-10T03:02:55.997Z,43.30
2023-05-10T03:05:22.443Z,43.34
2023-05-10T03:07:48.789Z,43.32
2023-05-10T03:10:15.400Z,43.34
2023-05-10T03:12:42.014Z,43.34
2023-05-10T03:15:08.457Z,43.11
2023-05-10T03:17:34.839Z,42.88
2023-05-10T03:20:01.202Z,43.12
2023-05-10T03:22:27.565Z,42.89
2023-05-10T03:24:53.878Z,43.12
2023-05-10T03:27:20.172Z,42.83
2023-05-10T03:29:46.480Z,43.11
2023-05-10T03:32:12.824Z,43.07
2023-05-10T03:34:39.175Z,43.05
2023-05-10T03:37:05.496Z,42.85
2023-05-10T03:39:31.794Z,42.74
2023-05-10T03:41:58.166Z,42.71
2023-05-10T03:44:24.458Z,42.89
2023-05-10T03:46:50.856Z,42.97
2023-05-10T03:49:17.196Z,42.93
2023-05-10T03:51:43.541Z,43.03
2023-05-10T03:54:09.934Z,42.95
2023-05-10T03:56:36.289Z,43.09
2023-05-10T03:59:02.695Z,42.85
2023-05-10T04:01:29.028Z,43.20
2023-05-10T04:03:55.501Z,42.87
2023-05-10T04:06:21.981Z,42.79
2023-05-10T04:08:48.366Z,42.92
2023-05-10T04:11:14.721Z,43.06
2023-05-10T04:13:41.091Z,43.07
2023-05-10T04:16:07.459Z,42.84
2023-05-10T04:18:33.808Z,43.14
2023-05-10T04:21:00.219Z,42.82
2023-05-10T04:23:26.541Z,43.00
2023-05-10T04:25:52.900Z,43.03
2023-05-10T04:28:19.255Z,43.17
2023-05-10T04:30:45.610Z,43.15
2023-05-10T04:33:11.955Z,43.01
2023-05-10T04:35:38.284Z,43.27
2023-05-10T04:38:04.632Z,43.16
2023-05-10T04:40:31.032Z,43.14
2023-05-10T04:42:57.398Z,43.15
2023-05-10T04:45:23.795Z,43.41
2023-05-10T04:47:50.205Z,43.21
2023-05-10T04:50:16.720Z,43.34
2023-05-10T04:52:43.224Z,43.20
2023-05-10T04:55:09.559Z,43.53
2023-05-10T04:57:35.876Z,43.49
2023-05-10T05:00:02.275Z,43.47
2023-05-10T05:02:28.729Z,43.63
2023-05-10T05:04:55.140Z,43.69
2023-05-10T05:07:21.511Z,43.76
2023-05-10T05:09:47.864Z,43.69
2023-05-10T05:12:14.147Z,43.83
2023-05-10T05:14:40.449Z,43.79
2023-05-10T05:17:06.778Z,43.71
2023-05-10T05:19:33.085Z,43.72
2023-05-10T05:21:59.437Z,43.55
2023-05-10T05:24:25.741Z,43.56
2023-05-10T05:26:52.070Z,43.56
2023-05-10T05:29:18.394Z,43.47
2023-05-10T05:31:44.713Z,43.60
2023-05-10T05:34:11.055Z,43.80
2023-05-10T05:36:37.697Z,43.82
2023-05-10T05:39:04.055Z,43.89
2023-05-10T05:41:30.381Z,43.69
2023-05-10T05:43:56.701Z,43.76
2023-05-10T05:46:22.994Z,43.81
2023-05-10T05:48:49.430Z,43.79
2023-05-10T05:51:15.903Z,43.87
2023-05-10T05:53:42.209Z,43.63
2023-05-10T05:56:08.562Z,43.92
2023-05-10T05:58:34.882Z,43.88
2023-05-10T06:01:01.248Z,43.90
2023-05-10T06:03:27.680Z,43.75
2023-05-10T06:05:54.008Z,44.04
2023-05-10T06:08:20.366Z,43.82
2023-05-10T06:10:46.716Z,43.91
2023-05-10T06:13:13.048Z,43.71
2023-05-10T06:15:39.436Z,44.11
2023-05-10T06:18:05.852Z,44.22
2023-05-10T06:20:32.335Z,43.90
2023-05-10T06:22:58.681Z,44.16
2023-05-10T06:25:25.034Z,44.16
2023-05-10T06:27:53.611Z,43.93
2023-05-10T06:30:20.354Z,44.18
2023-05-10T06:32:46.751Z,44.22
2023-05-10T06:35:13.120Z,44.22
2023-05-10T06:37:39.562Z,44.24
2023-05-10T06:40:05.927Z,44.30
2023-05-10T06:42:32.234Z,44.26
2023-05-10T06:44:58.559Z,44.33
2023-05-10T06:47:24.942Z,44.39
2023-05-10T06:49:51.266Z,44.50
2023-05-10T06:52:17.629Z,44.32
2023-05-10T06:54:43.934Z,44.42
2023-05-10T06:57:23.248Z,44.23
2023-05-10T06:59:56.536Z,44.12
2023-05-10T07:02:22.924Z,44.40
2023-05-10T07:04:49.399Z,44.25
2023-05-10T07:07:15.783Z,44.55
2023-05-10T07:09:42.101Z,44.60
2023-05-10T07:12:10.617Z,44.33
2023-05-10T07:14:37.960Z,44.49
2023-05-10T07:17:04.272Z,44.61
2023-05-10T07:19:30.621Z,44.56
2023-05-10T07:21:57.026Z,44.73
2023-05-10T07:24:23.335Z,44.55
2023-05-10T07:26:49.686Z,44.30
2023-05-10T07:29:15.980Z,44.70
2023-05-10T07:31:42.476Z,44.55
2023-05-10T07:34:08.855Z,44.51
2023-05-10T07:36:35.190Z,44.78
2023-05-10T07:39:01.574Z,44.54
2023-05-10T07:41:27.893Z,44.77
2023-05-10T07:43:54.257Z,44.64
2023-05-10T07:46:20.605Z,44.78
2023-05-10T07:48:46.941Z,44.79
2023-05-10T07:51:13.264Z,44.88
2023-05-10T07:53:39.629Z,44.65
2023-05-10T07:56:06.004Z,44.72
2023-05-10T07:58:32.359Z,44.75
2023-05-10T08:00:58.744Z,44.88
2023-05-10T08:03:25.160Z,44.78
2023-05-10T08:05:51.554Z,44.77
2023-05-10T08:08:17.850Z,44.71
2023-05-10T08:10:44.207Z,44.71
2023-05-10T08:13:10.548Z,44.59
2023-05-10T08:15:36.893Z,44.72
2023-05-10T08:18:03.318Z,44.99
2023-05-10T08:20:29.672Z,44.98
2023-05-10T08:22:56.047Z,44.95
2023-05-10T08:25:22.358Z,45.17
2023-05-10T08:27:48.901Z,45.10
2023-05-10T08:30:15.211Z,44.84
2023-05-10T08:32:41.628Z,44.82
2023-05-10T08:35:08.048Z,45.07
2023-05-10T08:37:34.372Z,44.94
2023-05-10T08:40:00.745Z,44.94
2023-05-10T08:42:27.139Z,45.14
2023-05-10T08:44:53.511Z,45.21
2023-05-10T08:47:19.873Z,45.23
2023-05-10T08:49:46.207Z,45.25
2023-05-10T08:52:12.547Z,44.96
2023-05-10T08:54:38.848Z,45.20
2023-05-10T08:57:05.247Z,45.29
2023-05-10T08:59:31.625Z,45.05
2023-05-10T09:01:58.282Z,45.05
2023-05-10T09:04:24.746Z,44.85
2023-05-10T09:06:51.169Z,44.71
2023-05-10T09:09:17.497Z,45.06
2023-05-10T09:11:43.840Z,45.06
2023-05-10T09:14:10.137Z,45.18
2023-05-10T09:16:36.447Z,45.04
2023-05-10T09:19:02.863Z,44.92
2023-05-10T09:21:29.248Z,45.12
2023-05-10T09:23:55.633Z,45.06
2023-05-10T09:26:22.041Z,45.34
2023-05-10T09:28:48.422Z,45.30
2023-05-10T09:31:14.806Z,44.88
2023-05-10T09:33:41.133Z,44.94
2023-05-10T09:36:07.542Z,45.11
2023-05-10T09:38:33.918Z,45.18
2023-05-10T09:41:00.295Z,44.99
2023-05-10T09:43:26.647Z,45.19
2023-05-10T09:45:53.043Z,45.13
2023-05-10T09:48:19.379Z,45.09
2023-05-10T09:50:45.731Z,45.10
2023-05-10T09:53:12.101Z,45.12
2023-05-10T09:55:38.454Z,45.25
2023-05-10T09:58:04.768Z,45.13
2023-05-10T10:00:31.140Z,45.33
2023-05-10T10:02:57.581Z,45.28
2023-05-10T10:05:23.928Z,45.06
2023-05-10T10:07:50.261Z,45.38
2023-05-10T10:10:16.651Z,45.41
2023-05-10T10:12:42.983Z,45.48
2023-05-10T10:15:09.303Z,45.19
2023-05-10T10:17:35.622Z,45.06
2023-05-10T10:20:01.968Z,45.36
2023-05-10T10:22:28.287Z,45.32
2023-05-10T10:24:54.630Z,45.14
2023-05-10T10:27:20.939Z,45.25
2023-05-10T10:29:47.342Z,45.14
2023-05-10T10:32:13.710Z,45.34
2023-05-10T10:34:40.026Z,45.43
2023-05-10T10:37:06.415Z,45.31
2023-05-10T10:39:32.809Z,45.33
2023-05-10T10:41:59.146Z,45.53
2023-05-10T10:44:25.515Z,45.18
2023-05-10T10:46:51.902Z,45.36
2023-05-10T10:49:18.225Z,45.17
2023-05-10T10:51:44.605Z,44.98
2023-05-10T10:54:10.927Z,45.15
2023-05-10T10:56:37.292Z,45.16
2023-05-10T10:59:03.621Z,45.11
2023-05-10T11:01:29.952Z,45.16
2023-05-10T11:03:56.433Z,45.03
2023-05-10T11:06:22.765Z,45.04
2023-05-10T11:08:49.118Z,44.91
2023-05-10T11:11:15.496Z,45.22
2023-05-10T11:13:41.824Z,45.20
2023-05-10T11:16:08.194Z,44.95
2023-05-10T11:18:34.579Z,44.93
2023-05-10T11:21:01.054Z,44.97
2023-05-10T11:23:27.432Z,44.71
2023-05-10T11:25:53.791Z,44.79
2023-05-10T11:28:20.150Z,44.81
2023-05-10T11:30:46.500Z,44.77
2023-05-10T11:33:12.887Z,44.43
2023-05-10T11:35:41.021Z,44.66
2023-05-10T11:38:08.838Z,44.53
2023-05-10T11:40:35.207Z,44.61
2023-05-10T11:43:01.522Z,44.58
2023-05-10T11:45:28.008Z,44.74
2023-05-10T11:47:54.362Z,44.82
2023-05-10T11:50:20.736Z,44.68
2023-05-10T11:52:47.065Z,44.49
2023-05-10T11:55:13.424Z,44.60
2023-05-10T11:57:39.734Z,44.41
2023-05-10T12:00:06.080Z,44.23
2023-05-10T12:02:32.508Z,44.28
2023-05-10T12:04:59.000Z,44.42
2023-05-10T12:07:25.446Z,44.07
2023-05-10T12:09:51.831Z,44.24
2023-05-10T12:12:18.166Z,44.29
2023-05-10T12:14:44.515Z,43.96
2023-05-10T12:17:10.844Z,44.13
2023-05-10T12:19:37.187Z,43.94
2023-05-10T12:22:03.536Z,44.24
2023-05-10T12:24:29.871Z,44.18
2023-05-10T12:27:05.117Z,44.00
2023-05-10T12:29:31.373Z,44.10
2023-05-10T12:31:57.730Z,43.94
2023-05-10T12:34:24.069Z,44.06
2023-05-10T12:36:50.315Z,44.02
2023-05-10T12:39:16.581Z,43.72
2023-05-10T12:41:43.718Z,43.87
2023-05-10T12:44:10.072Z,44.05
2023-05-10T12:46:36.357Z,43.92
2023-05-10T12:49:09.089Z,43.94
2023-05-10T12:51:35.969Z,43.64
2023-05-10T12:54:02.262Z,43.71
2023-05-10T12:56:28.536Z,43.59
2023-05-10T12:58:54.793Z,43.63
2023-05-10T13:01:21.075Z,43.71
2023-05-10T13:03:47.367Z,43.79
2023-05-10T13:06:13.641Z,43.74
2023-05-10T13:08:39.902Z,43.76
2023-05-10T13:11:06.157Z,43.58
2023-05-10T13:13:32.430Z,43.43
2023-05-10T13:15:58.706Z,43.45
2023-05-10T13:18:25.146Z,43.32
2023-05-10T13:20:51.525Z,43.50
2023-05-10T13:23:17.786Z,43.41
2023-05-10T13:25:44.079Z,43.33
2023-05-10T13:28:10.362Z,43.31
2023-05-10T13:30:36.686Z,43.38
2023-05-10T13:33:03.001Z,43.79
2023-05-10T13:35:29.284Z,43.16
2023-05-10T13:37:55.582Z,43.48
2023-05-10T13:40:21.842Z,43.40
2023-05-10T13:42:48.122Z,43.55
2023-05-10T13:45:14.614Z,43.24
2023-05-10T13:47:41.033Z,43.19
2023-05-10T13:50:07.338Z,43.44
2023-05-10T13:52:33.632Z,43.21
2023-05-10T13:54:59.889Z,43.61
2023-05-10T13:57:26.160Z,43.19
2023-05-10T13:59:52.425Z,43.23
2023-05-10T14:02:18.698Z,43.54
2023-05-10T14:04:44.959Z,43.70
2023-05-10T14:07:11.227Z,43.42
2023-05-10T14:09:37.474Z,43.36
2023-05-10T14:12:03.724Z,43.38
2023-05-10T14:14:29.997Z,43.50
2023-05-10T14:16:56.317Z,43.39
2023-05-10T14:19:22.614Z,43.19
2023-05-10T14:21:48.860Z,42.99
2023-05-10T14:24:15.121Z,43.15
2023-05-10T14:26:42.476Z,43.33
2023-05-10T14:29:10.032Z,43.15
2023-05-10T14:31:38.531Z,43.11
2023-05-10T14:34:04.897Z,43.17
2023-05-10T14:36:31.176Z,43.09
2023-05-10T14:38:57.458Z,42.91
2023-05-10T14:41:23.724Z,42.83
2023-05-10T14:43:49.990Z,42.87
2023-05-10T14:46:16.287Z,43.26
2023-05-10T14:48:42.573Z,42.99
2023-05-10T14:51:08.831Z,42.97
2023-05-10T14:53:35.144Z,42.83
2023-05-10T14:56:01.400Z,42.76
2023-05-10T14:58:27.686Z,42.59
2023-05-10T15:00:53.978Z,42.64
2023-05-10T15:03:20.835Z,42.82
2023-05-10T15:05:47.575Z,42.55
2023-05-10T15:08:13.841Z,42.68
2023-05-10T15:10:40.100Z,42.65
2023-05-10T15:13:06.371Z,42.63
2023-05-10T15:15:32.623Z,42.40
2023-05-10T15:17:58.958Z,42.51
2023-05-10T15:20:25.287Z,42.47
2023-05-10T15:22:51.543Z,42.39
2023-05-10T15:25:18.005Z,42.16
2023-05-10T15:27:44.521Z,42.50
2023-05-10T15:30:10.877Z,42.29
2023-05-10T15:32:37.215Z,42.35
2023-05-10T15:35:03.491Z,42.84
2023-05-10T15:37:29.758Z,42.60
2023-05-10T15:39:57.488Z,42.43
2023-05-10T15:42:23.829Z,42.22
2023-05-10T15:44:50.108Z,42.50
2023-05-10T15:47:16.386Z,42.63
2023-05-10T15:49:42.727Z,42.86
2023-05-10T15:52:09.047Z,42.67
2023-05-10T15:54:35.395Z,42.25
2023-05-10T15:57:01.775Z,42.02
2023-05-10T15:59:28.162Z,42.11
2023-05-10T16:01:54.551Z,42.43
2023-05-10T16:04:20.914Z,42.37
2023-05-10T16:06:47.281Z,42.29
2023-05-10T16:09:13.788Z,42.00
2023-05-10T16:11:40.155Z,42.12
2023-05-10T16:14:07.363Z,41.71
2023-05-10T16:16:33.902Z,42.12
2023-05-10T16:19:00.390Z,42.01
2023-05-10T16:21:26.806Z,41.78
2023-05-10T16:23:53.122Z,41.93
2023-05-10T16:26:19.467Z,41.82
2023-05-10T16:28:45.852Z,41.97
2023-05-10T16:31:12.212Z,41.94
2023-05-10T16:33:38.649Z,41.68
2023-05-10T16:36:04.953Z,41.67
2023-05-10T16:38:31.263Z,41.61
2023-05-10T16:40:57.572Z,41.87
2023-05-10T16:43:25.364Z,41.85
2023-05-10T16:45:52.533Z,41.99
2023-05-10T16:48:18.919Z,41.83
2023-05-10T16:50:45.250Z,41.69
2023-05-10T16:53:11.611Z,41.82
2023-05-10T16:55:37.943Z,41.75
2023-05-10T16:58:04.274Z,41.74
2023-05-10T17:00:30.687Z,42.10
2023-05-10T17:02:57.170Z,41.82
2023-05-10T17:05:23.580Z,42.00
2023-05-10T17:07:49.949Z,41.54
2023-05-10T17:10:16.356Z,42.07
2023-05-10T17:12:42.775Z,42.20
2023-05-10T17:15:09.142Z,41.89
2023-05-10T17:17:35.552Z,41.98
2023-05-10T17:20:01.943Z,42.00
2023-05-10T17:22:28.297Z,41.79
2023-05-10T17:24:54.613Z,41.83
2023-05-10T17:27:20.952Z,41.80
2023-05-10T17:29:47.309Z,42.11
2023-05-10T17:32:13.694Z,42.04
2023-05-10T17:34:40.002Z,41.84
2023-05-10T17:37:06.382Z,42.07
2023-05-10T17:39:32.743Z,42.27
2023-05-10T17:41:59.218Z,42.58
2023-05-10T17:44:25.612Z,42.58
2023-05-10T17:46:51.969Z,42.71
2023-05-10T17:49:18.326Z,42.16
2023-05-10T17:51:44.653Z,42.32
2023-05-10T17:54:10.959Z,42.24
2023-05-10T17:56:37.295Z,42.44
2023-05-10T17:59:03.690Z,42.15
2023-05-10T18:01:30.083Z,42.28
2023-05-10T18:03:56.404Z,42.29
2023-05-10T18:06:22.715Z,42.51
2023-05-10T18:08:49.079Z,42.41
2023-05-10T18:11:15.397Z,42.40
2023-05-10T18:13:41.824Z,42.47
2023-05-10T18:16:08.138Z,42.71
2023-05-10T18:18:34.454Z,42.87
2023-05-10T18:21:00.818Z,42.68
2023-05-10T18:23:27.140Z,42.61
2023-05-10T18:25:53.475Z,42.84
2023-05-10T18:28:19.856Z,43.04
2023-05-10T18:30:46.237Z,43.26
2023-05-10T18:33:12.669Z,43.11
2023-05-10T18:35:39.071Z,43.44
2023-05-10T18:38:05.468Z,43.28
2023-05-10T18:40:32.028Z,43.25
2023-05-10T18:42:58.474Z,43.53
2023-05-10T18:45:24.828Z,43.73
2023-05-10T18:47:51.201Z,43.51
2023-05-10T18:50:17.688Z,43.81
2023-05-10T18:52:44.066Z,44.08
2023-05-10T18:55:10.386Z,44.06
2023-05-10T18:57:36.742Z,43.91
2023-05-10T19:00:03.074Z,43.93
2023-05-10T19:02:29.411Z,43.88
2023-05-10T19:04:55.772Z,43.88
2023-05-10T19:07:22.253Z,44.04
2023-05-10T19:09:48.617Z,43.98
2023-05-10T19:12:14.959Z,44.08
2023-05-10T19:14:41.305Z,43.95
2023-05-10T19:17:08.706Z,44.03
2023-05-10T19:19:37.687Z,44.31
2023-05-10T19:22:04.568Z,43.96
2023-05-10T19:24:31.003Z,44.01
2023-05-10T19:26:57.402Z,44.11
2023-05-10T19:29:23.777Z,43.72
2023-05-10T19:31:50.283Z,44.20
2023-05-10T19:34:16.677Z,43.88
2023-05-10T19:36:43.120Z,43.88
2023-05-10T19:39:09.485Z,44.11
2023-05-10T19:41:35.835Z,44.07
2023-05-10T19:44:02.203Z,43.80
2023-05-10T19:46:28.585Z,44.12
2023-05-10T19:48:55.078Z,43.92
2023-05-10T19:51:21.462Z,44.13
2023-05-10T19:53:47.828Z,44.10
2023-05-10T19:56:14.149Z,43.89
2023-05-10T19:58:40.483Z,44.11
2023-05-10T20:01:06.801Z,43.78
2023-05-10T20:03:33.260Z,43.94
2023-05-10T20:05:59.631Z,43.74
2023-05-10T20:08:25.982Z,43.98
2023-05-10T20:10:52.357Z,43.71
2023-05-10T20:13:18.733Z,43.63
2023-05-10T20:15:45.119Z,43.86
2023-05-10T20:18:11.463Z,43.78
2023-05-10T20:20:37.790Z,43.88
2023-05-10T20:23:04.189Z,43.62
2023-05-10T20:25:30.562Z,43.50
2023-05-10T20:27:56.912Z,43.72
2023-05-10T20:30:23.258Z,43.52
2023-05-10T20:32:49.629Z,43.50
2023-05-10T20:35:15.971Z,43.78
2023-05-10T20:37:42.364Z,43.79
2023-05-10T20:40:08.739Z,43.50
2023-05-10T20:42:35.057Z,43.49
2023-05-10T20:45:01.372Z,43.60
2023-05-10T20:47:27.719Z,43.65
2023-05-10T20:49:54.116Z,43.62
2023-05-10T20:52:21.365Z,43.71
2023-05-10T20:54:48.609Z,43.60
2023-05-10T20:57:14.967Z,43.44
2023-05-10T20:59:41.322Z,43.78
2023-05-10T21:02:07.699Z,43.83
2023-05-10T21:04:34.054Z,43.51
2023-05-10T21:07:00.415Z,43.88
2023-05-10T21:09:26.735Z,43.75
2023-05-10T21:11:53.099Z,43.40
2023-05-10T21:14:19.598Z,43.71
2023-05-10T21:16:45.949Z,43.43
2023-05-10T21:19:12.271Z,43.74
2023-05-10T21:21:38.597Z,43.48
2023-05-10T21:24:04.905Z,43.51
2023-05-10T21:26:31.237Z,43.41
2023-05-10T21:28:57.595Z,43.63
2023-05-10T21:31:23.914Z,43.50
2023-05-10T21:33:50.313Z,43.53
2023-05-10T21:36:16.683Z,43.50
2023-05-10T21:38:43.048Z,43.34
2023-05-10T21:41:09.371Z,43.52
2023-05-10T21:43:35.684Z,43.30
2023-05-10T21:46:02.039Z,43.56
2023-05-10T21:48:28.386Z,43.51
2023-05-10T21:50:54.700Z,43.21
2023-05-10T21:53:21.138Z,43.53
2023-05-10T21:55:47.441Z,43.50
2023-05-10T21:58:13.788Z,43.40
2023-05-10T22:00:40.114Z,43.51
2023-05-10T22:03:06.605Z,43.46
2023-05-10T22:05:33.032Z,43.30
2023-05-10T22:07:59.408Z,43.38
2023-05-10T22:10:25.757Z,43.45
2023-05-10T22:12:52.133Z,43.41
2023-05-10T22:15:18.501Z,43.23
2023-05-10T22:17:44.820Z,43.23
2023-05-10T22:20:11.199Z,43.31
2023-05-10T22:22:37.577Z,43.32
2023-05-10T22:25:03.950Z,43.22
2023-05-10T22:27:30.320Z,43.15
2023-05-10T22:29:56.633Z,43.14
2023-05-10T22:32:23.005Z,43.25
2023-05-10T22:34:49.356Z,43.05
2023-05-10T22:37:15.662Z,43.30
2023-05-10T22:39:42.039Z,43.09
2023-05-10T22:42:08.337Z,43.33
2023-05-10T22:44:34.684Z,43.23
2023-05-10T22:47:01.075Z,43.31
2023-05-10T22:49:27.397Z,43.23
2023-05-10T22:51:53.749Z,43.13
2023-05-10T22:54:20.084Z,43.16
2023-05-10T22:56:46.460Z,43.24
2023-05-10T22:59:12.844Z,43.04
2023-05-10T23:01:39.177Z,43.22
2023-05-10T23:04:05.604Z,43.19
2023-05-10T23:06:31.984Z,43.04
2023-05-10T23:08:58.350Z,43.16
2023-05-10T23:11:24.672Z,43.27
2023-05-10T23:13:51.020Z,43.20
2023-05-10T23:16:17.359Z,42.88
2023-05-10T23:18:43.752Z,43.11
2023-05-10T23:21:10.149Z,42.95
2023-05-10T23:23:36.533Z,43.13
2023-05-10T23:26:02.848Z,42.90
2023-05-10T23:28:29.195Z,42.79
2023-05-10T23:30:55.559Z,42.98
2023-05-10T23:33:21.927Z,43.03
2023-05-10T23:35:48.298Z,43.18
2023-05-10T23:38:14.608Z,42.83
2023-05-10T23:40:40.947Z,42.78
2023-05-10T23:43:07.306Z,42.78
2023-05-10T23:45:33.664Z,42.95
2023-05-10T23:48:00.139Z,43.08
2023-05-10T23:50:26.531Z,42.83
2023-05-10T23:52:52.905Z,43.01
2023-05-10T23:55:19.228Z,42.84
2023-05-10T23:57:45.596Z,43.15
